Time;durP1;ratioP1;P1;durP2;ratioP2;P2;SDS_P1;SDS_P2;PMS_P1;PMS_P2;Temp;Humidity;BMP_temperature;BMP_pressure;BME280_temperature;BME280_humidity;BME280_pressure;Samples;Min_cycle;Max_cycle;Signal;HPM_P1;HPM_P2
2023/02/05 06:03:48;;;;;;;23.13;3.95;;;15.10;68.00;;;;;;5157336;23;20104;-76
2023/02/05 06:06:14;;;;;;;20.30;2.67;;;15.20;67.70;;;;;;4867594;29;20060;-73
2023/02/05 06:08:40;;;;;;;22.10;3.30;;;15.20;67.70;;;;;;4882979;29;20045;-75
2023/02/05 06:11:05;;;;;;;20.58;2.97;;;15.20;67.70;;;;;;4884027;29;20041;-75
2023/02/05 06:13:31;;;;;;;25.88;3.78;;;15.30;67.70;;;;;;4883781;29;20049;-76
2023/02/05 06:15:57;;;;;;;15.70;3.22;;;15.30;67.80;;;;;;4867036;29;20064;-73
2023/02/05 06:18:22;;;;;;;19.60;2.95;;;15.40;67.90;;;;;;4883957;29;20124;-73
2023/02/05 06:20:48;;;;;;;13.82;2.25;;;15.40;68.00;;;;;;4884053;29;20373;-74
2023/02/05 06:23:14;;;;;;;15.55;2.60;;;15.40;68.00;;;;;;4883004;29;20448;-75
2023/02/05 06:25:39;;;;;;;15.88;2.33;;;15.50;68.10;;;;;;4883650;29;20049;-75
2023/02/05 06:28:05;;;;;;;18.48;2.70;;;15.50;68.00;;;;;;4882966;29;20056;-74
2023/02/05 06:30:31;;;;;;;15.50;2.42;;;15.60;67.80;;;;;;4883557;29;20089;-75
2023/02/05 06:32:57;;;;;;;15.93;2.28;;;15.70;67.80;;;;;;4883476;29;20049;-74
2023/02/05 06:35:23;;;;;;;16.77;2.95;;;15.70;67.70;;;;;;4883638;29;20045;-75
2023/02/05 06:37:48;;;;;;;17.05;2.63;;;15.70;67.30;;;;;;4883694;29;20101;-74
2023/02/05 06:40:16;;;;;;;15.65;2.42;;;15.70;67.50;;;;;;4882941;29;20057;-73
2023/02/05 06:42:43;;;;;;;9.02;1.67;;;15.70;67.50;;;;;;4883005;29;20057;-74
2023/02/05 06:45:09;;;;;;;10.88;1.63;;;15.70;67.20;;;;;;4882878;29;20057;-77
2023/02/05 06:47:41;;;;;;;13.35;2.13;;;15.60;67.30;;;;;;4882487;29;20052;-77
2023/02/05 06:50:07;;;;;;;13.13;1.88;;;15.60;67.10;;;;;;4880222;29;20095;-79
2023/02/05 06:52:33;;;;;;;11.43;1.88;;;15.60;67.10;;;;;;4882566;29;20051;-77
2023/02/05 06:54:59;;;;;;;9.57;2.25;;;15.50;67.00;;;;;;4882625;29;20049;-75
2023/02/05 06:57:25;;;;;;;8.95;1.88;;;15.50;66.90;;;;;;4850506;29;20068;-83
2023/02/05 06:59:50;;;;;;;12.40;1.75;;;15.40;67.00;;;;;;4866692;29;20052;-80
2023/02/05 07:02:19;;;;;;;8.30;1.80;;;15.40;66.80;;;;;;4886914;29;20037;-82
2023/02/05 07:04:48;;;;;;;10.82;1.92;;;15.40;66.70;;;;;;4849363;29;20441;-80
2023/02/05 07:07:17;;;;;;;10.70;1.88;;;15.40;66.60;;;;;;4847783;29;20103;-78
2023/02/05 07:09:45;;;;;;;9.85;1.77;;;15.30;67.00;;;;;;4863900;29;20056;-79
2023/02/05 07:12:11;;;;;;;9.85;2.42;;;15.30;67.60;;;;;;4860631;29;20077;-80
2023/02/05 07:14:38;;;;;;;9.82;2.53;;;15.20;68.10;;;;;;4863441;29;20489;-81
2023/02/05 07:17:04;;;;;;;9.40;2.33;;;15.20;68.00;;;;;;4863002;29;20480;-80
2023/02/05 07:19:29;;;;;;;13.57;2.28;;;15.20;68.10;;;;;;4864519;29;20049;-81
2023/02/05 07:21:55;;;;;;;10.75;1.92;;;15.20;68.10;;;;;;4848059;29;20449;-78
2023/02/05 07:24:21;;;;;;;10.13;2.72;;;15.20;68.10;;;;;;4863960;29;20045;-79
2023/02/05 07:26:47;;;;;;;14.45;2.92;;;15.20;68.20;;;;;;4863047;29;20064;-80
2023/02/05 07:29:13;;;;;;;19.45;2.92;;;15.10;67.80;;;;;;4863292;29;20457;-80
2023/02/05 07:31:39;;;;;;;11.90;2.65;;;15.10;67.70;;;;;;4863063;29;20044;-74
2023/02/05 07:34:04;;;;;;;13.80;2.75;;;15.10;67.60;;;;;;4864058;29;20045;-73
2023/02/05 07:36:30;;;;;;;12.85;2.58;;;15.10;67.50;;;;;;4864632;29;20136;-73
2023/02/05 07:38:56;;;;;;;13.27;2.88;;;15.00;67.30;;;;;;4864052;29;20053;-74
2023/02/05 07:41:21;;;;;;;13.85;2.45;;;15.10;67.20;;;;;;4863673;29;20114;-73
2023/02/05 07:43:51;;;;;;;10.90;1.95;;;15.00;67.10;;;;;;4863339;29;20049;-73
2023/02/05 07:46:18;;;;;;;12.18;2.90;;;15.00;67.30;;;;;;4863918;29;20088;-72
2023/02/05 07:48:44;;;;;;;20.20;3.00;;;14.90;67.50;;;;;;4863814;29;20128;-71
2023/02/05 07:51:19;;;;;;;14.15;2.60;;;14.90;67.20;;;;;;4862979;29;20398;-75
2023/02/05 07:53:45;;;;;;;11.82;2.10;;;14.90;67.90;;;;;;4861786;29;20121;-73
2023/02/05 07:56:11;;;;;;;16.80;2.95;;;14.90;67.80;;;;;;4859358;29;20433;-69
2023/02/05 07:58:37;;;;;;;18.17;3.95;;;14.90;67.50;;;;;;4856486;29;20058;-70
2023/02/05 08:01:03;;;;;;;19.63;3.22;;;14.90;66.90;;;;;;4861652;29;20333;-68
2023/02/05 08:03:29;;;;;;;22.75;3.17;;;14.90;66.10;;;;;;4860503;29;20483;-68
2023/02/05 08:05:55;;;;;;;13.45;2.53;;;14.90;65.70;;;;;;4880817;29;20088;-68
2023/02/05 08:08:21;;;;;;;13.50;2.50;;;14.80;66.00;;;;;;4881532;29;20132;-68
2023/02/05 08:10:54;;;;;;;15.10;3.50;;;14.80;65.40;;;;;;4881329;29;20088;-68
2023/02/05 08:13:20;;;;;;;14.50;3.63;;;14.70;65.30;;;;;;4881496;29;20049;-67
2023/02/05 08:15:47;;;;;;;14.63;3.38;;;14.70;65.40;;;;;;4881279;29;20142;-68
2023/02/05 08:18:13;;;;;;;11.23;2.38;;;14.70;66.10;;;;;;4881441;29;20120;-72
2023/02/05 08:20:39;;;;;;;17.65;3.92;;;14.70;65.50;;;;;;4879655;29;20053;-70
2023/02/05 08:23:04;;;;;;;16.35;4.20;;;14.70;65.40;;;;;;4880076;29;20103;-72
2023/02/05 08:25:30;;;;;;;12.75;3.85;;;14.70;64.90;;;;;;4881285;29;20133;-70
2023/02/05 08:27:56;;;;;;;17.23;3.22;;;14.60;64.50;;;;;;4881407;29;20077;-70
2023/02/05 08:30:22;;;;;;;10.48;3.03;;;14.70;64.20;;;;;;4881400;29;20057;-72
2023/02/05 08:32:49;;;;;;;17.17;4.05;;;14.60;63.80;;;;;;4881230;29;20045;-72
2023/02/05 08:35:15;;;;;;;16.48;3.42;;;14.60;63.70;;;;;;4881177;29;20085;-71
2023/02/05 08:37:41;;;;;;;17.52;3.67;;;14.60;63.50;;;;;;4881254;29;20128;-70
2023/02/05 08:40:08;;;;;;;14.75;3.80;;;14.60;63.20;;;;;;4880680;29;20421;-70
2023/02/05 08:42:34;;;;;;;14.05;4.05;;;14.60;62.70;;;;;;4871721;29;20051;-71
2023/02/05 08:44:59;;;;;;;12.43;3.30;;;14.60;62.40;;;;;;4881159;29;20120;-71
2023/02/05 08:47:26;;;;;;;10.45;3.22;;;14.60;62.20;;;;;;4880958;29;20482;-71
2023/02/05 08:49:52;;;;;;;14.00;3.80;;;14.60;62.10;;;;;;4880703;29;20052;-71
2023/02/05 08:52:18;;;;;;;17.08;4.07;;;14.50;61.50;;;;;;4881139;29;20104;-68
2023/02/05 08:54:44;;;;;;;14.27;3.42;;;14.50;62.00;;;;;;4880992;29;20473;-68
2023/02/05 08:57:10;;;;;;;17.85;3.60;;;14.50;62.70;;;;;;4881003;29;20073;-69
2023/02/05 08:59:36;;;;;;;18.92;4.53;;;14.40;62.50;;;;;;4881063;29;20128;-69
2023/02/05 09:02:02;;;;;;;15.73;4.18;;;14.30;63.00;;;;;;4880675;29;20045;-68
2023/02/05 09:04:29;;;;;;;21.05;3.75;;;14.30;63.20;;;;;;4878920;29;20657;-69
2023/02/05 09:06:55;;;;;;;14.30;3.92;;;14.20;63.50;;;;;;4879406;29;20064;-69
2023/02/05 09:09:21;;;;;;;16.17;4.10;;;14.20;63.80;;;;;;4880310;29;20053;-68
2023/02/05 09:11:47;;;;;;;18.10;3.50;;;14.20;63.70;;;;;;4880593;29;20053;-67
2023/02/05 09:14:13;;;;;;;15.98;3.30;;;14.20;64.10;;;;;;4880547;29;20041;-69
2023/02/05 09:16:40;;;;;;;23.15;4.30;;;14.10;64.30;;;;;;4880494;29;20056;-67
2023/02/05 09:19:06;;;;;;;17.10;3.67;;;14.10;64.50;;;;;;4880646;29;20469;-68
2023/02/05 09:21:32;;;;;;;14.48;3.25;;;14.10;64.80;;;;;;4880946;29;20049;-68
2023/02/05 09:23:58;;;;;;;14.75;3.47;;;14.10;65.00;;;;;;4879593;29;20041;-72
2023/02/05 09:26:25;;;;;;;15.35;3.17;;;14.00;65.80;;;;;;4880417;29;20053;-73
2023/02/05 09:28:51;;;;;;;13.20;3.28;;;14.00;65.30;;;;;;4879969;29;20060;-72
2023/02/05 09:31:18;;;;;;;15.70;3.65;;;14.00;65.20;;;;;;4879110;29;20048;-72
2023/02/05 09:33:45;;;;;;;14.32;3.13;;;14.10;65.40;;;;;;4880410;29;20053;-72
2023/02/05 09:36:22;;;;;;;15.73;2.92;;;14.20;65.40;;;;;;4880242;29;20048;-72
2023/02/05 09:38:51;;;;;;;10.30;2.80;;;14.40;65.30;;;;;;4880406;29;20088;-72
2023/02/05 09:41:25;;;;;;;14.68;3.42;;;14.50;65.20;;;;;;4880379;29;20057;-72
2023/02/05 09:43:51;;;;;;;;;;;14.60;65.20;;;;;;4878418;29;20041;-72
2023/02/05 09:46:31;;;;;;;13.18;2.58;;;14.70;65.30;;;;;;4880443;29;19930;-72
2023/02/05 09:49:05;;;;;;;8.75;2.40;;;14.70;65.20;;;;;;4878980;29;20145;-72
2023/02/05 09:51:33;;;;;;;11.48;3.03;;;14.80;65.20;;;;;;4877667;29;20046;-72
2023/02/05 09:54:12;;;;;;;15.38;3.47;;;14.80;65.20;;;;;;4879912;29;20041;-72
2023/02/05 09:56:38;;;;;;;13.95;3.17;;;14.90;65.30;;;;;;4880044;29;20045;-72
2023/02/05 09:59:05;;;;;;;9.70;2.40;;;14.90;65.30;;;;;;4880253;29;20064;-72
2023/02/05 10:02:19;;;;;;;11.63;3.00;;;14.90;65.30;;;;;;4861831;29;20049;-71
2023/02/05 10:04:44;;;;;;;13.23;2.88;;;15.00;65.50;;;;;;4863550;29;20071;-72
2023/02/05 10:07:39;;;;;;;16.85;3.20;;;15.10;65.60;;;;;;4883872;29;20045;-74
2023/02/05 10:10:24;;;;;;;11.88;3.20;;;15.20;66.00;;;;;;4883878;29;20048;-73
2023/02/05 10:13:02;;;;;;;16.80;3.60;;;15.20;65.90;;;;;;4883061;29;20049;-72
2023/02/05 10:15:34;;;;;;;22.42;3.88;;;15.40;65.80;;;;;;4881835;29;20475;-71
2023/02/05 10:18:13;;;;;;;17.40;3.08;;;15.40;65.90;;;;;;4882683;29;20052;-74
2023/02/05 10:20:57;;;;;;;21.00;3.95;;;15.50;66.00;;;;;;4881942;29;20128;-72
2023/02/05 10:23:53;;;;;;;18.35;3.72;;;15.50;66.00;;;;;;4881916;29;20056;-72
2023/02/05 10:26:24;;;;;;;16.40;3.63;;;15.60;66.10;;;;;;4883813;29;20053;-72
2023/02/05 10:29:20;;;;;;;17.40;3.90;;;15.60;66.10;;;;;;4882459;29;20087;-77
2023/02/05 10:32:07;;;;;;;14.82;3.53;;;15.70;66.10;;;;;;4883182;29;20053;-71
2023/02/05 10:34:36;;;;;;;18.05;2.78;;;15.70;66.00;;;;;;4883601;29;20084;-70
2023/02/05 10:37:05;;;;;;;21.83;3.83;;;15.70;66.00;;;;;;4883503;29;20071;-70
2023/02/05 10:39:31;;;;;;;20.30;3.58;;;15.70;66.10;;;;;;4883404;29;20048;-71
2023/02/05 10:42:25;;;;;;;17.90;3.33;;;15.70;66.20;;;;;;4883646;29;20049;-71
2023/02/05 10:45:17;;;;;;;18.73;3.33;;;15.70;67.00;;;;;;4882892;29;20045;-71
2023/02/05 10:48:25;;;;;;;20.67;4.18;;;15.70;66.60;;;;;;4882272;29;20498;-77
2023/02/05 10:51:03;;;;;;;20.25;3.25;;;15.70;66.90;;;;;;4859145;29;20433;-71
2023/02/05 10:53:29;;;;;;;19.83;3.90;;;15.60;66.80;;;;;;4879772;29;20063;-71
2023/02/05 10:55:57;;;;;;;20.75;3.85;;;15.60;66.90;;;;;;4882521;29;20460;-71
2023/02/05 10:58:52;;;;;;;16.58;2.97;;;15.60;67.10;;;;;;4883242;29;20063;-72
2023/02/05 11:01:24;;;;;;;21.05;4.10;;;15.60;67.40;;;;;;4882440;29;20049;-71
2023/02/05 11:04:09;;;;;;;23.05;4.28;;;15.60;67.40;;;;;;4882862;29;20049;-71
2023/02/05 11:06:42;;;;;;;27.02;3.45;;;15.60;67.50;;;;;;4883039;29;20091;-71
2023/02/05 11:09:23;;;;;;;19.27;3.63;;;15.60;67.60;;;;;;4883023;29;20049;-72
2023/02/05 11:12:13;;;;;;;18.35;3.03;;;15.60;67.80;;;;;;4866853;29;20536;-71
2023/02/05 11:14:44;;;;;;;27.60;3.95;;;15.50;67.80;;;;;;4883009;29;20052;-72
2023/02/05 11:17:15;;;;;;;22.13;3.63;;;15.60;67.90;;;;;;4881127;29;20496;-71
2023/02/05 11:19:54;;;;;;;21.10;3.70;;;15.60;67.90;;;;;;4882610;29;20060;-71
2023/02/05 11:22:39;;;;;;;27.15;3.60;;;15.70;67.90;;;;;;4882651;29;20393;-72
2023/02/05 11:25:19;;;;;;;27.80;4.20;;;15.80;67.70;;;;;;4882648;29;20078;-71
2023/02/05 11:28:04;;;;;;;28.42;5.22;;;15.80;67.50;;;;;;4882594;29;20069;-72
2023/02/05 11:30:37;;;;;;;33.60;5.65;;;15.80;66.70;;;;;;4882699;29;20421;-76
2023/02/05 11:33:18;;;;;;;28.58;4.75;;;15.80;65.60;;;;;;4881750;29;20083;-73
2023/02/05 11:35:55;;;;;;;33.15;5.90;;;15.80;65.10;;;;;;4882047;29;20161;-72
2023/02/05 11:38:47;;;;;;;24.02;4.45;;;15.80;65.30;;;;;;4882152;29;20049;-72
2023/02/05 11:41:50;;;;;;;24.40;5.20;;;15.80;63.60;;;;;;4870541;29;20045;-72
2023/02/05 11:44:34;;;;;;;24.75;5.47;;;15.70;62.60;;;;;;4879578;29;20057;-71
2023/02/05 11:47:01;;;;;;;27.05;4.70;;;15.70;62.70;;;;;;4882537;29;20119;-72
2023/02/05 11:49:31;;;;;;;26.63;5.03;;;15.70;63.00;;;;;;4882613;29;20045;-72
2023/02/05 11:51:58;;;;;;;20.90;4.28;;;15.70;63.10;;;;;;4882057;29;20582;-72
2023/02/05 11:54:31;;;;;;;17.50;4.45;;;15.60;63.50;;;;;;4881301;29;20136;-72
2023/02/05 11:57:18;;;;;;;22.02;4.35;;;15.60;63.50;;;;;;4881184;29;20478;-73
2023/02/05 12:00:18;;;;;;;20.42;4.22;;;15.50;63.20;;;;;;4881977;29;20069;-72
2023/02/05 12:02:48;;;;;;;18.52;4.05;;;15.50;63.40;;;;;;4832859;29;20057;-72
2023/02/05 12:05:28;;;;;;;17.27;4.22;;;15.50;63.90;;;;;;4877124;29;20543;-72
2023/02/05 12:08:21;;;;;;;15.35;3.78;;;15.40;64.00;;;;;;4881263;29;20041;-72
2023/02/05 12:11:13;;;;;;;24.50;4.93;;;15.40;64.30;;;;;;4878170;29;20144;-71
2023/02/05 12:13:42;;;;;;;16.67;3.80;;;15.40;64.60;;;;;;4880910;29;20081;-72
2023/02/05 12:16:26;;;;;;;18.80;4.40;;;15.30;64.90;;;;;;4881840;29;20112;-72
2023/02/05 12:19:01;;;;;;;16.90;3.90;;;15.40;65.30;;;;;;4882066;29;20064;-68
2023/02/05 12:21:30;;;;;;;23.25;4.07;;;15.40;65.40;;;;;;4881453;29;20053;-73
2023/02/05 12:23:59;;;;;;;17.02;4.25;;;15.50;65.40;;;;;;4881316;29;20060;-72
2023/02/05 12:26:32;;;;;;;17.63;3.90;;;15.60;65.30;;;;;;4881708;29;20053;-71
2023/02/05 12:28:58;;;;;;;;;;;15.70;65.20;;;;;;4881516;29;20053;-72
2023/02/05 12:31:58;;;;;;;23.33;3.92;;;15.60;65.30;;;;;;4881653;29;19958;-71
2023/02/05 12:34:49;;;;;;;15.85;3.67;;;15.70;65.40;;;;;;4855208;29;20424;-71
2023/02/05 12:37:50;;;;;;;21.35;4.93;;;15.80;65.10;;;;;;4865886;29;20056;-73
2023/02/05 12:40:28;;;;;;;18.45;3.53;;;15.90;63.30;;;;;;4863260;29;20057;-72
2023/02/05 12:43:01;;;;;;;17.52;4.75;;;15.80;62.70;;;;;;4874802;29;20523;-72
2023/02/05 12:45:59;;;;;;;16.17;4.47;;;15.80;61.20;;;;;;4881125;29;20057;-71
2023/02/05 12:48:58;;;;;;;17.42;3.70;;;15.80;60.10;;;;;;4881489;29;20057;-72
2023/02/05 12:51:45;;;;;;;13.55;4.13;;;15.80;60.60;;;;;;4881574;29;20385;-73
2023/02/05 12:54:21;;;;;;;12.60;4.18;;;15.70;60.90;;;;;;4864913;29;20420;-72
2023/02/05 12:57:04;;;;;;;16.75;3.95;;;15.70;61.30;;;;;;4881263;29;20093;-71
2023/02/05 12:59:45;;;;;;;17.17;3.95;;;15.70;61.30;;;;;;4882109;29;20053;-72
2023/02/05 13:02:31;;;;;;;17.05;4.20;;;15.70;61.50;;;;;;4881883;29;20135;-72
2023/02/05 13:05:12;;;;;;;14.63;3.80;;;15.70;61.90;;;;;;4880463;29;20053;-72
2023/02/05 13:07:44;;;;;;;13.80;3.75;;;15.60;61.90;;;;;;4878840;29;20162;-72
2023/02/05 13:10:27;;;;;;;16.52;3.67;;;15.60;62.20;;;;;;4881162;29;20524;-72
2023/02/05 13:13:08;;;;;;;16.42;3.63;;;15.60;62.30;;;;;;4881397;29;20081;-71
2023/02/05 13:15:43;;;;;;;14.02;4.10;;;15.50;62.50;;;;;;4881520;29;20484;-72
2023/02/05 13:18:18;;;;;;;11.95;3.67;;;15.50;62.60;;;;;;4881226;29;20049;-73
2023/02/05 13:29:49;;;;;;;19.40;4.43;;;15.50;63.60;;;;;;4880765;29;20387;-76
2023/02/05 13:32:20;;;;;;;15.20;3.78;;;15.50;64.20;;;;;;4878349;29;20045;-74
2023/02/05 13:34:46;;;;;;;25.30;5.18;;;15.60;64.10;;;;;;4880374;29;20108;-76
2023/02/05 13:37:39;;;;;;;22.73;4.60;;;15.60;64.20;;;;;;4883740;29;20048;-72
2023/02/05 13:40:25;;;;;;;23.40;4.15;;;15.70;64.30;;;;;;4884019;29;20436;-74
2023/02/05 13:44:39;;;;;;;21.17;4.53;;;15.80;63.90;;;;;;5124378;27;20362;-75
2023/02/05 13:47:31;;;;;;;14.38;4.55;;;15.80;64.50;;;;;;5109864;28;20085;-72
2023/02/05 13:50:27;;;;;;;23.38;3.72;;;15.80;64.60;;;;;;5108120;28;20416;-72
2023/02/05 13:52:52;;;;;;;16.77;3.10;;;15.90;64.70;;;;;;5112058;28;20177;-72
2023/02/05 13:55:36;;;;;;;17.17;4.05;;;15.90;64.70;;;;;;5112685;28;20085;-72
2023/02/05 13:58:20;;;;;;;21.23;3.95;;;16.00;64.80;;;;;;5111581;28;20036;-73
2023/02/05 14:00:58;;;;;;;17.52;3.47;;;15.90;65.00;;;;;;5111071;28;20067;-73
2023/02/05 14:03:26;;;;;;;15.57;4.15;;;16.00;65.70;;;;;;5111821;28;20043;-75
2023/02/05 14:05:52;;;;;;;14.05;2.95;;;15.90;65.30;;;;;;5112144;28;20059;-74
2023/02/05 14:08:25;;;;;;;14.98;3.13;;;15.90;65.30;;;;;;5111998;28;20044;-73
2023/02/05 14:11:04;;;;;;;12.55;3.25;;;15.90;65.40;;;;;;5111628;28;20066;-73
2023/02/05 14:13:33;;;;;;;10.52;2.78;;;15.90;65.50;;;;;;5111759;28;20107;-73
2023/02/05 14:16:24;;;;;;;13.57;3.50;;;15.90;65.60;;;;;;5112038;28;20036;-72
2023/02/05 14:19:10;;;;;;;11.82;3.00;;;15.90;65.70;;;;;;5111977;28;20048;-72
2023/02/05 14:21:45;;;;;;;13.73;3.28;;;15.80;65.80;;;;;;5109556;28;20051;-73
2023/02/05 14:24:45;;;;;;;15.65;3.30;;;15.80;65.90;;;;;;5111612;28;20044;-74
2023/02/05 14:27:31;;;;;;;13.82;2.80;;;15.80;66.00;;;;;;5111384;28;20075;-73
2023/02/05 14:30:32;;;;;;;13.05;3.30;;;15.80;66.10;;;;;;5106135;28;20044;-71
2023/02/05 14:33:25;;;;;;;10.77;3.45;;;15.70;66.10;;;;;;5104325;28;20055;-73
2023/02/05 14:35:55;;;;;;;10.57;3.38;;;15.70;66.10;;;;;;5110120;28;20339;-72
2023/02/05 14:38:31;;;;;;;11.13;2.83;;;15.70;66.20;;;;;;5111601;28;20036;-73
2023/02/05 14:41:07;;;;;;;10.75;2.97;;;15.70;66.30;;;;;;5109420;28;20072;-72
2023/02/05 14:43:37;;;;;;;10.68;3.55;;;15.70;66.20;;;;;;5108454;28;20051;-72
2023/02/05 14:46:22;;;;;;;12.88;3.05;;;15.70;66.20;;;;;;5111217;28;20056;-73
2023/02/05 14:48:48;;;;;;;12.90;2.78;;;15.70;66.30;;;;;;5110410;28;20039;-73
2023/02/05 14:51:41;;;;;;;8.88;2.92;;;15.70;66.40;;;;;;5104291;28;20035;-72
2023/02/05 14:54:15;;;;;;;15.50;2.75;;;15.70;66.40;;;;;;5101763;27;20127;-70
2023/02/05 14:57:08;;;;;;;12.93;3.20;;;15.70;66.40;;;;;;5097332;28;20052;-75
2023/02/05 14:59:49;;;;;;;15.68;2.88;;;15.70;66.60;;;;;;5086701;28;20048;-73
2023/02/05 15:02:53;;;;;;;19.92;4.93;;;15.80;66.80;;;;;;5097950;28;20481;-73
2023/02/05 15:05:43;;;;;;;16.60;3.45;;;15.80;67.00;;;;;;5098349;28;20076;-75
2023/02/05 15:08:11;;;;;;;16.98;3.15;;;15.80;66.90;;;;;;5098396;28;20048;-72
2023/02/05 15:11:07;;;;;;;17.88;3.70;;;15.80;67.00;;;;;;5097939;28;20358;-74
2023/02/05 15:13:33;;;;;;;28.58;3.70;;;15.80;67.00;;;;;;5097017;28;20063;-73
2023/02/05 15:16:11;;;;;;;26.70;4.65;;;15.90;66.40;;;;;;5097711;28;20044;-72
2023/02/05 15:18:52;;;;;;;26.48;5.70;;;15.80;65.00;;;;;;5097879;28;20056;-72
2023/02/05 15:21:21;;;;;;;31.52;5.82;;;15.80;65.20;;;;;;5098050;28;20090;-73
2023/02/05 15:24:02;;;;;;;25.58;5.40;;;15.80;64.00;;;;;;5097817;28;20131;-76
2023/02/05 15:26:51;;;;;;;38.75;5.78;;;15.70;63.10;;;;;;5096104;28;20056;-73
2023/02/05 15:29:32;;;;;;;28.83;5.85;;;15.70;63.40;;;;;;5096921;28;20055;-73
2023/02/05 15:32:02;;;;;;;31.80;6.97;;;15.70;63.90;;;;;;5097267;28;20066;-72
2023/02/05 15:34:46;;;;;;;30.27;5.70;;;15.80;64.30;;;;;;5097406;28;20441;-71
2023/02/05 15:37:21;;;;;;;;;;;15.80;64.50;;;;;;5097691;28;20047;-72
2023/02/05 15:39:50;;;;;;;;;;;15.90;64.50;;;;;;5097630;28;19920;-73
2023/02/05 15:42:22;;;;;;;29.42;7.65;;;15.90;64.70;;;;;;5096681;28;20413;-75
2023/02/05 15:44:48;;;;;;;40.03;8.10;;;15.90;64.80;;;;;;5097472;28;20047;-75
2023/02/05 15:47:20;;;;;;;23.05;7.15;;;15.90;65.10;;;;;;5097231;28;20054;-73
2023/02/05 15:49:50;;;;;;;48.88;9.48;;;15.90;64.90;;;;;;5096981;28;20457;-72
2023/02/05 15:52:36;;;;;;;31.20;8.73;;;16.00;65.40;;;;;;5095973;28;20051;-75
2023/02/05 15:55:12;;;;;;;36.50;8.73;;;16.00;65.20;;;;;;5078668;28;20060;-75
2023/02/05 15:57:38;;;;;;;42.45;9.48;;;16.00;65.60;;;;;;5095513;28;20036;-75
2023/02/05 16:00:07;;;;;;;35.55;9.98;;;16.00;65.90;;;;;;5092264;28;20060;-75
2023/02/05 16:02:35;;;;;;;35.45;9.43;;;16.10;66.40;;;;;;5076619;28;20045;-74
2023/02/05 16:05:14;;;;;;;33.45;9.00;;;16.00;66.60;;;;;;5076542;28;20464;-76
2023/02/05 16:07:41;;;;;;;34.33;9.00;;;16.00;67.00;;;;;;5075815;28;20047;-73
2023/02/05 16:10:19;;;;;;;25.20;8.55;;;16.00;67.20;;;;;;5076371;28;20099;-75
2023/02/05 16:13:04;;;;;;;34.35;9.07;;;16.00;67.60;;;;;;5076781;28;20163;-75
2023/02/05 16:15:41;;;;;;;27.38;8.35;;;16.00;68.00;;;;;;5059044;28;20135;-74
2023/02/05 16:18:34;;;;;;;30.38;8.43;;;16.00;68.20;;;;;;5076988;28;20056;-74
2023/02/05 16:21:27;;;;;;;27.35;7.30;;;15.90;68.80;;;;;;5076802;28;20117;-74
2023/02/05 16:24:24;;;;;;;32.33;7.47;;;15.90;69.10;;;;;;5066068;28;20071;-75
2023/02/05 16:26:59;;;;;;;33.58;8.35;;;15.90;69.60;;;;;;5082766;28;20131;-75
2023/02/05 16:29:35;;;;;;;28.77;8.38;;;15.80;69.80;;;;;;5096187;28;20184;-74
2023/02/05 16:32:19;;;;;;;34.22;8.23;;;15.80;69.80;;;;;;5096683;28;20040;-74
2023/02/05 16:34:46;;;;;;;46.78;9.93;;;15.80;69.60;;;;;;5095477;28;20028;-72
2023/02/05 16:37:16;;;;;;;49.13;9.90;;;15.80;69.30;;;;;;5095360;28;20072;-72
2023/02/05 16:39:45;;;;;;;53.53;10.10;;;15.80;69.40;;;;;;5095448;28;20040;-73
2023/02/05 16:42:32;;;;;;;46.97;9.25;;;15.80;69.50;;;;;;5095770;28;20438;-75
2023/02/05 16:45:04;;;;;;;47.17;9.60;;;15.80;69.60;;;;;;5078029;28;20373;-76
2023/02/05 16:47:29;;;;;;;44.40;10.90;;;15.80;69.60;;;;;;5095389;28;20435;-75
2023/02/05 16:49:55;;;;;;;57.75;9.77;;;15.80;69.60;;;;;;5095202;28;20039;-75
2023/02/05 16:52:29;;;;;;;50.65;9.20;;;15.80;69.30;;;;;;5095696;28;20036;-75
2023/02/05 16:54:56;;;;;;;61.55;10.10;;;15.80;69.40;;;;;;5095578;28;20040;-75
2023/02/05 16:57:37;;;;;;;49.50;9.30;;;15.80;69.20;;;;;;5095967;28;20040;-76
2023/02/05 17:00:07;;;;;;;41.35;8.95;;;15.80;69.00;;;;;;5096156;28;20040;-74
2023/02/05 17:02:39;;;;;;;46.80;8.82;;;15.80;68.90;;;;;;5083123;28;20119;-73
2023/02/05 17:05:20;;;;;;;46.25;8.95;;;15.80;68.90;;;;;;5095475;28;20563;-74
2023/02/05 17:07:57;;;;;;;46.22;10.15;;;15.80;69.10;;;;;;5089153;28;20348;-74
2023/02/05 17:10:24;;;;;;;32.42;6.63;;;15.80;68.90;;;;;;5095294;28;20048;-74
2023/02/05 17:12:56;;;;;;;33.65;7.20;;;15.60;67.00;;;;;;5095095;28;20044;-74
2023/02/05 17:15:22;;;;;;;34.25;6.95;;;15.50;66.90;;;;;;5095082;28;20107;-74
2023/02/05 17:17:53;;;;;;;34.47;6.38;;;15.50;68.70;;;;;;5094343;28;20055;-72
2023/02/05 17:20:22;;;;;;;25.83;5.25;;;15.50;69.10;;;;;;5095813;28;20130;-73
2023/02/05 17:23:06;;;;;;;21.60;5.10;;;15.50;69.10;;;;;;5095412;28;20036;-74
2023/02/05 17:25:37;;;;;;;25.58;5.03;;;15.50;69.10;;;;;;5095455;28;20044;-73
2023/02/05 17:28:05;;;;;;;28.35;5.25;;;15.50;69.10;;;;;;5095237;28;20137;-78
2023/02/05 17:30:30;;;;;;;28.35;5.43;;;15.50;69.10;;;;;;5094954;28;20044;-73
2023/02/05 17:32:56;;;;;;;21.20;4.93;;;15.40;69.00;;;;;;5094910;28;20051;-73
2023/02/05 17:35:25;;;;;;;26.65;5.07;;;15.50;69.20;;;;;;5094473;28;20102;-73
2023/02/05 17:37:54;;;;;;;25.15;4.63;;;15.40;69.30;;;;;;5094480;28;20458;-73
2023/02/05 17:40:20;;;;;;;14.77;4.00;;;15.50;69.40;;;;;;5094559;28;20113;-73
2023/02/05 17:42:46;;;;;;;25.48;4.65;;;15.40;69.30;;;;;;5093182;28;20048;-71
2023/02/05 17:45:19;;;;;;;19.25;4.15;;;15.40;69.50;;;;;;5094884;28;20052;-73
2023/02/05 17:47:45;;;;;;;20.90;3.75;;;15.40;69.70;;;;;;5094452;28;20115;-74
2023/02/05 17:50:11;;;;;;;20.85;4.63;;;15.40;69.70;;;;;;5094808;28;20123;-72
2023/02/05 17:52:37;;;;;;;16.35;3.70;;;15.40;69.00;;;;;;5094123;28;20393;-73
2023/02/05 17:55:04;;;;;;;16.33;4.43;;;15.30;68.70;;;;;;5093469;28;20503;-74
2023/02/05 17:57:33;;;;;;;14.23;4.35;;;15.30;68.70;;;;;;5095937;28;20425;-73
2023/02/05 17:59:59;;;;;;;17.13;4.00;;;15.30;69.30;;;;;;5094770;28;20040;-74
2023/02/05 18:02:25;;;;;;;19.25;4.68;;;15.30;69.50;;;;;;5094791;28;20115;-73
